Monday, June 25, 2018, 12:17 AM EDT
Back to Local

KVAY, Mt Holly South Jersey Rgnl

Location: Medford, NJ, United States Lat: 39.933
Local Time: 12:17 AM EDT ( 4:17 GMT) Lon: -74.833
Time Zone: US/Eastern Elev: 52 ft

Show me the last for .
Show Decoded

2018-06-24 23:54 METAR KVAY 250354Z AUTO 28004KT 10SM CLR 22/21 A2986 RMK AO2 SLP109 T02220206 $
                 =
2018-06-24 22:54 METAR KVAY 250254Z AUTO 27005KT 10SM CLR 23/21 A2984 RMK AO2 RAE12 SLP105 P0001
                 60002 T02280206 51014 $ =
2018-06-24 21:54 METAR KVAY 250154Z AUTO 28007KT 6SM RA FEW050 SCT090 BKN110 24/19 A2984 RMK AO2
                 RAB50 SLP105 P0001 T02390194 $ =
2018-06-24 20:54 METAR KVAY 250054Z AUTO 25004KT 10SM 25/19 A2981 RMK AO2 RAB24E34 SLP094 P0000
                 T02500194 $ =
2018-06-24 19:54 METAR KVAY 242354Z AUTO 23005KT 10SM CLR 28/19 A2980 RMK AO2 LTG DSNT NW SLP091
                 T02830189 10311 20283 53005 =
2018-06-24 18:54 METAR KVAY 242254Z AUTO 23007KT 10SM CLR 29/19 A2978 RMK AO2 SLP083 T02890189 =
2018-06-24 17:54 METAR KVAY 242154Z AUTO 23007KT 10SM FEW060 29/19 A2978 RMK AO2 SLP085 T02940194
                 =
2018-06-24 16:54 METAR KVAY 242054Z AUTO 23005KT 10SM FEW060 OVC095 29/20 A2979 RMK AO2 SLP085
                 T02940200 56012 =
2018-06-24 15:54 METAR KVAY 241954Z AUTO 24007KT 10SM FEW075 FEW090 31/21 A2979 RMK AO2 SLP088
                 T03110206 =
2018-06-24 14:54 METAR KVAY 241854Z AUTO 24007G15KT 10SM SCT100 30/19 A2980 RMK AO2 SLP090
                 T03000189 =
2018-06-24 13:54 METAR KVAY 241754Z AUTO 25009KT 10SM SCT048 BKN055 OVC075 29/19 A2982 RMK AO2
                 SLP097 T02890194 10294 20206 55007 =
2018-06-24 12:54 METAR KVAY 241654Z AUTO 25008KT 10SM FEW044 29/19 A2982 RMK AO2 SLP097 T02890194
                 =
2018-06-24 11:54 METAR KVAY 241554Z AUTO 25010G15KT 10SM FEW038 28/20 A2983 RMK AO2 SLP102
                 T02830200 =
2018-06-24 10:54 METAR KVAY 241454Z AUTO 25007KT 10SM SCT025 27/21 A2984 RMK AO2 SLP104 T02670206
                 58002 =
2018-06-24 10:31 METAR KVAY 241431Z AUTO VRB04KT 10SM SCT021 26/21 A2984 RMK AO2 T02610211 =
2018-06-24 10:24 METAR KVAY 241424Z AUTO 23003KT 10SM BKN021 26/21 A2984 RMK AO2 T02610211 =
2018-06-24 09:54 METAR KVAY 241354Z AUTO VRB04KT 10SM FEW014 25/21 A2985 RMK AO2 SLP106 T02500211
                 =
2018-06-24 09:06 METAR KVAY 241306Z AUTO 22003KT 6SM BR SCT007 23/22 A2985 RMK AO2 T02330217 =
2018-06-24 08:54 METAR KVAY 241254Z AUTO 00000KT 5SM BR BKN007 23/22 A2985 RMK AO2 CIG 004V011
                 SLP107 T02280217 =
2018-06-24 08:26 METAR KVAY 241226Z AUTO 00000KT 3SM BR OVC002 21/21 A2985 RMK AO2 T02110211 =
2018-06-24 08:13 METAR KVAY 241213Z AUTO 00000KT 1 1/4SM BR OVC002 21/21 A2985 RMK AO2 T02110211
                 =
2018-06-24 07:54 METAR KVAY 241154Z AUTO 00000KT 1/2SM FG VV002 21/21 A2985 RMK AO2 SLP106
                 T02060206 10206 20189 53007 =
2018-06-24 06:54 METAR KVAY 241054Z AUTO 00000KT 1/2SM FG VV003 19/19 A2984 RMK AO2 SLP103
                 T01940194 =
2018-06-24 05:54 METAR KVAY 240954Z AUTO 00000KT 1/2SM FG VV003 19/19 A2983 RMK AO2 SLP100
                 T01940194 =
2018-06-24 05:44 METAR KVAY 240944Z AUTO 00000KT 3/4SM BR VV003 19/19 A2983 RMK AO2 T01940194 =
2018-06-24 05:37 METAR KVAY 240937Z AUTO 00000KT 1SM BR VV003 19/19 A2983 RMK AO2 T01940194 =
2018-06-24 05:22 METAR KVAY 240922Z AUTO 00000KT 1 1/4SM BR OVC002 19/19 A2983 RMK AO2 T01890189
                 =
2018-06-24 05:09 METAR KVAY 240909Z AUTO 00000KT 1SM BR VV002 19/19 A2983 RMK AO2 T01890189 =
2018-06-24 04:54 METAR KVAY 240854Z AUTO 17003KT 3/4SM BR VV002 19/19 A2982 RMK AO2 SLP099
                 T01890189 53003 =
2018-06-24 03:54 METAR KVAY 240754Z AUTO 00000KT 1/2SM FG VV002 19/19 A2981 RMK AO2 SLP094
                 T01890189 =
2018-06-24 02:54 METAR KVAY 240654Z AUTO VRB03KT 3/4SM BR VV002 19/19 A2982 RMK AO2 SLP096
                 T01890189 =
2018-06-24 02:32 METAR KVAY 240632Z AUTO 00000KT 3/4SM BR VV002 19/19 A2982 RMK AO2 T01890189 =
2018-06-24 02:17 METAR KVAY 240617Z AUTO 00000KT 1SM BR OVC002 19/19 A2982 RMK AO2 T01890189 =
2018-06-24 01:54 METAR KVAY 240554Z AUTO 14003KT 1 3/4SM BR OVC002 19/19 A2981 RMK AO2 SLP095
                 T01940194 10211 20194 58003 =
2018-06-24 01:18 METAR KVAY 240518Z AUTO 12003KT 1 1/4SM BR OVC002 19/19 A2982 RMK AO2 T01940194
                 =
2018-06-24 00:54 METAR KVAY 240454Z AUTO 13003KT 1SM BR VV003 19/19 A2983 RMK AO2 SLP099
                 T01940194 402110172 =
2018-06-24 00:38 METAR KVAY 240438Z AUTO 11003KT 3/4SM BR VV003 19/19 A2983 RMK AO2 T01940194 =
2018-06-24 00:30 METAR KVAY 240430Z AUTO 00000KT 1SM BR OVC002 19/19 A2983 RMK AO2 T01940194 =
2018-06-24 00:22 METAR KVAY 240422Z AUTO 00000KT 1 1/4SM BR OVC003 19/19 A2983 RMK AO2 T01940194
                 =

Support USWX by starting your Amazon purchase here.